Time;durP1;ratioP1;P1;durP2;ratioP2;P2;SDS_P1;SDS_P2;PMS_P1;PMS_P2;Temp;Humidity;BMP_temperature;BMP_pressure;BME280_temperature;BME280_humidity;BME280_pressure;Samples;Min_cycle;Max_cycle;Signal;HPM_P1;HPM_P2
2022/07/30 00:01:13;;;;;;;4.63;2.85;;;;;;;16.55;71.13;100973.66;5003383;28;20034;-77
2022/07/30 00:03:40;;;;;;;3.65;2.47;;;;;;;16.44;73.68;100975.91;5016350;28;20044;-77
2022/07/30 00:06:06;;;;;;;4.18;3.08;;;;;;;16.40;74.92;100974.31;5011032;28;20041;-78
2022/07/30 00:08:33;;;;;;;4.65;2.75;;;;;;;16.37;73.43;100969.06;5002976;28;20532;-77
2022/07/30 00:11:00;;;;;;;6.25;3.10;;;;;;;16.28;75.10;100971.16;5024121;28;20056;-78
2022/07/30 00:13:26;;;;;;;3.88;2.78;;;;;;;16.27;75.10;100972.09;5017258;28;20060;-77
2022/07/30 00:15:53;;;;;;;5.63;2.75;;;;;;;16.25;75.21;100965.97;4984711;28;20045;-77
2022/07/30 00:18:20;;;;;;;3.40;3.10;;;;;;;16.19;75.95;100965.34;4989066;28;20091;-77
2022/07/30 00:20:48;;;;;;;3.05;2.65;;;;;;;16.14;76.81;100960.16;5025561;28;20048;-79
2022/07/30 00:23:15;;;;;;;4.18;2.60;;;;;;;16.11;76.24;100973.63;4979714;28;20045;-78
2022/07/30 00:25:43;;;;;;;3.33;2.78;;;;;;;16.06;76.67;100967.63;4993909;28;20048;-78
2022/07/30 00:28:09;;;;;;;6.35;3.05;;;;;;;16.12;76.59;100970.03;4994938;28;20033;-78
2022/07/30 00:30:37;;;;;;;5.53;2.60;;;;;;;16.03;77.28;100965.03;5010717;28;20033;-77
2022/07/30 00:33:04;;;;;;;4.35;3.35;;;;;;;16.02;77.42;100965.97;5023973;28;20042;-78
2022/07/30 00:35:33;;;;;;;4.75;3.00;;;;;;;16.00;77.69;100962.50;5024705;28;20076;-78
2022/07/30 00:38:00;;;;;;;6.30;2.90;;;;;;;15.93;77.97;100958.34;5008626;28;20041;-78
2022/07/30 00:40:27;;;;;;;5.43;2.90;;;;;;;15.97;77.35;100962.59;4995116;28;20046;-78
2022/07/30 00:42:54;;;;;;;4.60;3.13;;;;;;;15.99;78.20;100955.44;5008821;28;20593;-78
2022/07/30 00:45:21;;;;;;;4.30;2.80;;;;;;;16.01;77.38;100962.44;5013291;28;20049;-78
2022/07/30 00:47:47;;;;;;;3.47;2.63;;;;;;;16.09;76.95;100953.28;4983254;28;20034;-78
2022/07/30 00:50:15;;;;;;;4.40;2.58;;;;;;;16.14;74.89;100946.84;4988800;28;20045;-77
2022/07/30 00:52:42;;;;;;;4.13;2.92;;;;;;;16.21;75.59;100953.66;4992439;28;20487;-77
2022/07/30 00:55:11;;;;;;;3.83;2.80;;;;;;;16.25;75.69;100944.63;4997601;28;20421;-78
2022/07/30 00:57:38;;;;;;;8.50;2.70;;;;;;;16.22;76.32;100950.06;5000524;28;20052;-77
2022/07/30 01:00:08;;;;;;;4.82;3.10;;;;;;;16.16;76.04;100947.66;4999421;28;20148;-78
2022/07/30 01:02:36;;;;;;;3.63;2.58;;;;;;;16.11;76.19;100954.09;5016101;28;20033;-77
2022/07/30 01:05:03;;;;;;;6.53;2.90;;;;;;;16.16;75.80;100957.47;5015142;28;20616;-77
2022/07/30 01:07:30;;;;;;;4.82;2.95;;;;;;;16.19;74.36;100952.00;5011612;28;20056;-78
2022/07/30 01:09:57;;;;;;;4.72;2.70;;;;;;;16.16;76.40;100954.78;5026117;28;20037;-78
2022/07/30 01:12:25;;;;;;;3.00;2.40;;;;;;;16.18;75.23;100945.81;4994891;28;20045;-78
2022/07/30 01:14:56;;;;;;;5.07;2.40;;;;;;;16.14;74.38;100945.97;5014068;28;20099;-78
2022/07/30 01:17:23;;;;;;;5.22;2.40;;;;;;;16.10;75.23;100945.22;5017154;28;20502;-79
2022/07/30 01:19:54;;;;;;;3.92;2.75;;;;;;;16.05;77.15;100937.41;5011770;28;20560;-78
2022/07/30 01:22:27;;;;;;;4.40;2.70;;;;;;;16.04;75.81;100945.47;5013630;28;20040;-79
2022/07/30 01:25:02;;;;;;;3.95;2.50;;;;;;;16.05;76.57;100944.53;5024698;28;20046;-78
2022/07/30 01:27:31;;;;;;;3.28;2.42;;;;;;;15.99;76.95;100950.13;5030563;28;20136;-78
2022/07/30 01:30:01;;;;;;;3.03;2.72;;;;;;;15.91;77.61;100941.53;5011047;28;20038;-78
2022/07/30 01:32:28;;;;;;;6.20;2.60;;;;;;;15.96;76.06;100942.22;5014896;28;20049;-78
2022/07/30 01:34:57;;;;;;;4.43;2.60;;;;;;;15.90;76.76;100950.47;4994629;28;20490;-78
2022/07/30 01:37:24;;;;;;;8.05;2.60;;;;;;;15.90;77.92;100945.13;5006031;28;20052;-78
2022/07/30 01:39:52;;;;;;;4.75;2.40;;;;;;;15.94;77.01;100944.94;5008519;28;20060;-77
2022/07/30 01:42:19;;;;;;;3.72;2.47;;;;;;;15.89;78.05;100944.28;5012816;28;20033;-78
2022/07/30 01:44:47;;;;;;;4.70;2.92;;;;;;;15.88;78.67;100946.97;5025728;28;20042;-77
2022/07/30 01:47:15;;;;;;;3.33;2.40;;;;;;;15.80;78.36;100941.94;5002278;28;20121;-77
2022/07/30 01:49:47;;;;;;;3.67;2.72;;;;;;;15.85;78.13;100947.97;5022829;28;20040;-78
2022/07/30 01:52:16;;;;;;;5.55;2.55;;;;;;;16.01;75.91;100950.91;5009584;28;20045;-78
2022/07/30 01:54:48;;;;;;;4.65;2.90;;;;;;;16.08;76.50;100933.78;5006437;28;20049;-78
2022/07/30 01:57:15;;;;;;;5.50;2.75;;;;;;;16.15;76.17;100937.94;5004477;28;20117;-78
2022/07/30 01:59:44;;;;;;;3.25;2.35;;;;;;;16.13;75.72;100938.91;5015030;28;20046;-78
2022/07/30 02:02:11;;;;;;;5.75;2.58;;;;;;;16.26;74.56;100935.72;4996280;28;20045;-78
2022/07/30 02:04:43;;;;;;;7.95;3.05;;;;;;;16.22;75.11;100943.88;5001222;28;20041;-78
2022/07/30 02:07:15;;;;;;;4.15;2.30;;;;;;;16.23;73.69;100938.50;5009632;28;20034;-78
2022/07/30 02:09:52;;;;;;;9.70;3.33;;;;;;;16.22;75.92;100939.41;4980498;28;20071;-78
2022/07/30 02:12:29;;;;;;;8.25;3.60;;;;;;;16.25;77.39;100938.44;5011788;28;20033;-79
2022/07/30 02:15:12;;;;;;;7.97;2.78;;;;;;;16.24;77.57;100926.91;5013342;28;20468;-78
2022/07/30 02:17:42;;;;;;;6.18;2.50;;;;;;;16.17;76.41;100928.06;4995907;28;20646;-78
2022/07/30 02:20:12;;;;;;;2.70;2.42;;;;;;;16.13;77.06;100931.78;4991120;28;20068;-77
2022/07/30 02:22:42;;;;;;;2.95;2.22;;;;;;;16.09;76.90;100926.63;5008599;28;20033;-79
2022/07/30 02:25:13;;;;;;;4.18;2.47;;;;;;;16.10;76.22;100929.25;4988156;28;20037;-78
2022/07/30 02:27:42;;;;;;;2.53;2.20;;;;;;;16.02;77.27;100923.34;5004078;28;20041;-78
2022/07/30 02:30:10;;;;;;;3.30;2.30;;;;;;;15.99;76.79;100918.13;4999107;28;20177;-78
2022/07/30 02:32:39;;;;;;;4.72;2.42;;;;;;;15.99;78.25;100920.81;5004669;28;20576;-77
2022/07/30 02:35:10;;;;;;;3.40;2.35;;;;;;;15.99;77.73;100924.34;4991543;28;20037;-78
2022/07/30 02:37:37;;;;;;;3.33;2.30;;;;;;;15.88;78.70;100918.53;4989383;28;20528;-77
2022/07/30 02:40:13;;;;;;;2.92;2.25;;;;;;;15.82;78.43;100925.91;5026837;28;20045;-78
2022/07/30 02:42:42;;;;;;;2.80;2.15;;;;;;;15.78;79.11;100927.81;4999723;28;20029;-78
2022/07/30 02:45:09;;;;;;;3.08;2.20;;;;;;;15.71;79.48;100926.28;4992814;28;20041;-78
2022/07/30 02:47:37;;;;;;;2.92;2.53;;;;;;;15.67;79.98;100925.53;5011996;28;20037;-78
2022/07/30 02:50:06;;;;;;;3.53;2.58;;;;;;;15.60;80.73;100918.69;4996944;28;20041;-78
2022/07/30 02:52:33;;;;;;;3.97;2.28;;;;;;;15.54;80.69;100923.34;5015350;28;20033;-78
2022/07/30 02:55:01;;;;;;;3.97;2.65;;;;;;;15.57;79.56;100921.47;5008195;28;20032;-77
2022/07/30 02:57:28;;;;;;;3.70;2.20;;;;;;;15.55;80.17;100925.94;5000882;28;20809;-78
2022/07/30 02:59:56;;;;;;;4.00;2.22;;;;;;;15.53;81.30;100918.94;4998364;28;20095;-78
2022/07/30 03:02:24;;;;;;;3.60;2.70;;;;;;;15.46;81.57;100920.97;5015206;28;20042;-78
2022/07/30 03:04:57;;;;;;;2.95;2.22;;;;;;;15.45;82.27;100921.91;4996951;28;20518;-78
2022/07/30 03:07:26;;;;;;;4.43;2.05;;;;;;;15.53;79.77;100916.28;4990279;28;20045;-79
2022/07/30 03:09:55;;;;;;;3.95;2.63;;;;;;;15.36;81.25;100924.88;5012244;28;20508;-78
2022/07/30 03:12:22;;;;;;;3.25;2.95;;;;;;;15.32;82.86;100924.16;5019408;28;20645;-77
2022/07/30 03:14:52;;;;;;;3.40;2.35;;;;;;;15.27;82.58;100927.88;5007983;28;20494;-78
2022/07/30 03:17:21;;;;;;;4.07;2.60;;;;;;;15.40;80.39;100927.41;4992663;28;20049;-77
2022/07/30 03:19:48;;;;;;;3.45;2.63;;;;;;;15.47;81.71;100928.06;4993755;28;20044;-78
2022/07/30 03:22:17;;;;;;;4.95;2.25;;;;;;;15.38;83.02;100925.69;5014983;28;20469;-78
2022/07/30 03:24:44;;;;;;;3.78;2.80;;;;;;;15.25;83.98;100927.06;4992723;28;20037;-78
2022/07/30 03:27:12;;;;;;;4.88;2.50;;;;;;;15.25;83.78;100927.94;4997303;28;20038;-78
2022/07/30 03:29:40;;;;;;;3.45;2.50;;;;;;;15.21;83.46;100928.97;5006774;28;20066;-78
2022/07/30 03:32:07;;;;;;;4.40;2.63;;;;;;;15.25;84.67;100927.06;4999661;28;20030;-78
2022/07/30 03:34:40;;;;;;;4.18;2.42;;;;;;;15.17;85.06;100930.88;5007136;28;20041;-78
2022/07/30 03:37:07;;;;;;;3.88;2.67;;;;;;;15.18;83.95;100935.28;5016658;28;20067;-77
2022/07/30 03:39:34;;;;;;;3.40;2.13;;;;;;;15.12;84.21;100931.94;5012437;28;20029;-78
2022/07/30 03:42:02;;;;;;;3.53;2.33;;;;;;;15.11;84.43;100927.56;5017760;28;20037;-77
2022/07/30 03:44:30;;;;;;;4.38;2.20;;;;;;;15.24;83.56;100920.03;5011731;28;20033;-78
2022/07/30 03:46:56;;;;;;;4.43;2.63;;;;;;;15.28;83.75;100913.66;5009610;28;20041;-78
2022/07/30 03:49:24;;;;;;;5.93;2.15;;;;;;;15.21;85.12;100913.84;5016973;28;20117;-79
2022/07/30 03:51:52;;;;;;;3.63;2.20;;;;;;;15.33;81.96;100917.03;4999353;28;20037;-78
2022/07/30 03:54:19;;;;;;;2.88;2.22;;;;;;;15.23;83.76;100918.28;5022705;28;20037;-77
2022/07/30 03:56:46;;;;;;;4.30;2.47;;;;;;;15.31;84.31;100919.75;4997045;28;20037;-78
2022/07/30 03:59:15;;;;;;;3.50;2.28;;;;;;;15.29;83.81;100923.38;4999524;28;20613;-78
2022/07/30 04:01:41;;;;;;;2.55;2.33;;;;;;;15.30;83.71;100918.00;5011640;28;20100;-77
2022/07/30 04:04:10;;;;;;;7.40;5.32;;;;;;;15.34;85.40;100919.63;5019641;28;20479;-78
2022/07/30 04:06:41;;;;;;;4.03;2.40;;;;;;;15.34;84.91;100924.94;5023720;28;20120;-77
2022/07/30 04:09:10;;;;;;;3.88;2.60;;;;;;;15.45;85.43;100925.41;5010880;28;20045;-77
2022/07/30 04:11:37;;;;;;;2.90;2.38;;;;;;;15.50;83.71;100925.28;5010808;28;20064;-77
2022/07/30 04:14:07;;;;;;;2.63;2.05;;;;;;;15.44;84.19;100936.13;5010924;28;20120;-77
2022/07/30 04:16:45;;;;;;;3.80;2.15;;;;;;;15.50;84.53;100927.94;5018660;28;20075;-77
2022/07/30 04:19:19;;;;;;;3.78;2.55;;;;;;;15.58;82.79;100932.97;4994526;28;20048;-77
2022/07/30 04:21:47;;;;;;;3.53;1.90;;;;;;;15.58;83.53;100931.19;5011558;28;20037;-77
2022/07/30 04:24:14;;;;;;;2.25;1.65;;;;;;;15.61;83.46;100931.09;4993863;28;20099;-77
2022/07/30 04:26:41;;;;;;;2.40;1.77;;;;;;;15.67;83.40;100930.88;5017241;28;20048;-77
2022/07/30 04:29:08;;;;;;;3.65;2.10;;;;;;;15.69;83.22;100936.13;5022942;28;20098;-77
2022/07/30 04:31:42;;;;;;;3.28;2.00;;;;;;;15.80;82.34;100936.59;5014462;28;20729;-77
2022/07/30 04:34:13;;;;;;;4.45;2.55;;;;;;;15.74;83.70;100943.03;5010281;28;20471;-76
2022/07/30 04:36:40;;;;;;;3.72;1.90;;;;;;;15.77;84.16;100942.91;5008077;28;20034;-77
2022/07/30 04:39:07;;;;;;;2.00;1.80;;;;;;;16.01;80.95;100943.78;5028761;28;20075;-77
2022/07/30 04:41:34;;;;;;;2.47;1.73;;;;;;;15.93;81.47;100943.22;4989476;28;20053;-77
2022/07/30 04:44:15;;;;;;;3.97;2.00;;;;;;;15.96;84.09;100937.75;5019285;28;20099;-77
2022/07/30 04:46:42;;;;;;;4.05;2.00;;;;;;;16.07;84.07;100941.84;5009310;28;20037;-76
2022/07/30 04:49:10;;;;;;;2.92;1.92;;;;;;;16.10;82.83;100939.03;5009213;28;20041;-76
2022/07/30 04:51:37;;;;;;;3.17;2.00;;;;;;;16.08;84.68;100944.44;5007578;28;20713;-76
2022/07/30 04:54:06;;;;;;;2.55;2.00;;;;;;;16.04;84.71;100937.47;5026205;28;20025;-76
2022/07/30 04:56:34;;;;;;;4.38;2.30;;;;;;;16.14;85.81;100941.50;4995931;28;20510;-76
2022/07/30 04:59:01;;;;;;;5.00;2.00;;;;;;;16.18;84.87;100943.13;4997680;28;20525;-76
2022/07/30 05:01:34;;;;;;;6.28;2.15;;;;;;;16.27;85.21;100944.56;4994326;28;20048;-77
2022/07/30 05:04:07;;;;;;;4.65;1.80;;;;;;;16.28;82.39;100943.63;5009076;28;20107;-76
2022/07/30 05:06:35;;;;;;;3.05;1.83;;;;;;;16.25;83.64;100947.31;5008695;28;20040;-77
2022/07/30 05:09:02;;;;;;;3.25;1.83;;;;;;;16.35;82.34;100942.47;4990699;28;20441;-76
2022/07/30 05:11:29;;;;;;;2.55;1.80;;;;;;;16.49;80.14;100944.59;5012290;28;20036;-76
2022/07/30 05:13:56;;;;;;;4.53;1.80;;;;;;;16.47;81.11;100949.09;4995501;28;20045;-76
2022/07/30 05:16:23;;;;;;;3.05;1.90;;;;;;;16.50;81.82;100946.34;5002977;28;20045;-76
2022/07/30 05:18:50;;;;;;;3.10;1.90;;;;;;;16.58;84.41;100946.88;5012328;28;20510;-76
2022/07/30 05:21:17;;;;;;;2.50;2.08;;;;;;;16.66;81.14;100954.59;5003860;28;20428;-78
2022/07/30 05:23:43;;;;;;;3.45;1.60;;;;;;;16.75;81.68;100954.22;5026519;28;20399;-78
2022/07/30 05:26:19;;;;;;;3.30;1.63;;;;;;;16.74;80.67;100948.03;5008433;28;20104;-77
2022/07/30 05:28:46;;;;;;;3.47;1.88;;;;;;;16.85;79.96;100944.91;5013973;28;20045;-78
2022/07/30 05:31:20;;;;;;;3.97;1.63;;;;;;;16.92;79.33;100946.38;5011628;28;20061;-77
2022/07/30 05:33:47;;;;;;;2.22;1.60;;;;;;;16.93;78.50;100949.94;5003181;23;20609;-80
2022/07/30 05:36:13;;;;;;;2.25;1.80;;;;;;;16.92;79.57;100946.38;5008961;28;20045;-79
2022/07/30 05:38:40;;;;;;;2.42;1.83;;;;;;;17.01;77.81;100945.13;5003439;28;20096;-79
2022/07/30 05:41:07;;;;;;;2.47;1.70;;;;;;;17.00;79.19;100948.75;5019690;28;20029;-78
2022/07/30 05:43:54;;;;;;;3.17;1.80;;;;;;;17.09;77.15;100941.19;4997427;28;20037;-79
2022/07/30 05:46:22;;;;;;;4.80;2.15;;;;;;;17.13;78.61;100939.25;4995528;28;20049;-79
2022/07/30 05:48:48;;;;;;;4.85;1.73;;;;;;;17.22;79.57;100938.84;4993313;28;20048;-79
2022/07/30 05:51:17;;;;;;;3.75;1.50;;;;;;;17.29;78.75;100943.00;5020462;28;20499;-78
2022/07/30 05:53:44;;;;;;;2.25;1.80;;;;;;;17.40;78.34;100938.06;4993918;28;20041;-79
2022/07/30 05:56:11;;;;;;;2.47;1.77;;;;;;;17.38;77.05;100950.59;4993316;28;20070;-78
2022/07/30 05:58:37;;;;;;;1.85;1.65;;;;;;;17.32;78.46;100952.66;4999283;28;20038;-79
2022/07/30 06:01:04;;;;;;;2.08;1.48;;;;;;;17.54;79.38;100941.91;4994568;28;20491;-79
2022/07/30 06:03:31;;;;;;;5.03;1.65;;;;;;;17.58;77.93;100940.84;5005211;28;20414;-79
2022/07/30 06:05:57;;;;;;;2.58;1.80;;;;;;;17.69;75.75;100939.41;4996847;28;20068;-78
2022/07/30 06:08:24;;;;;;;2.60;1.90;;;;;;;17.65;76.99;100942.28;5013937;28;20061;-78
2022/07/30 06:10:51;;;;;;;2.33;1.50;;;;;;;17.70;76.99;100940.31;5021482;28;20038;-79
2022/07/30 06:13:17;;;;;;;2.97;1.48;;;;;;;17.79;78.13;100939.03;5003805;28;20543;-78
2022/07/30 06:15:44;;;;;;;2.08;1.70;;;;;;;17.84;76.68;100931.69;4993456;28;20091;-80
2022/07/30 06:18:12;;;;;;;2.75;1.55;;;;;;;18.02;77.74;100940.66;5014680;28;20115;-80
2022/07/30 06:20:41;;;;;;;2.13;1.63;;;;;;;17.99;74.72;100946.97;4999299;28;20057;-79
2022/07/30 06:23:07;;;;;;;3.92;1.75;;;;;;;18.04;76.62;100944.97;4995146;28;20041;-78
2022/07/30 06:25:34;;;;;;;2.47;2.03;;;;;;;18.09;74.62;100948.31;4969375;28;20495;-79
2022/07/30 06:28:04;;;;;;;4.30;1.65;;;;;;;18.09;73.25;100942.09;4997918;28;20517;-79
2022/07/30 06:30:51;;;;;;;2.35;1.80;;;;;;;18.13;74.19;100951.69;4978564;28;20034;-78
2022/07/30 06:33:18;;;;;;;3.00;1.60;;;;;;;18.24;72.10;100947.59;4999465;28;20030;-78
2022/07/30 06:35:44;;;;;;;2.72;1.85;;;;;;;18.32;72.15;100946.34;4976817;28;20112;-78
2022/07/30 06:38:11;;;;;;;3.15;1.48;;;;;;;18.43;72.81;100952.91;4995047;28;20046;-78
2022/07/30 06:40:38;;;;;;;2.85;1.30;;;;;;;18.46;74.12;100951.91;4999056;28;20714;-78
2022/07/30 06:43:05;;;;;;;2.53;1.60;;;;;;;18.59;73.60;100961.06;4993294;28;20121;-79
2022/07/30 06:45:31;;;;;;;3.45;1.60;;;;;;;18.75;72.98;100953.16;4971104;28;20056;-78
2022/07/30 06:47:58;;;;;;;2.50;1.60;;;;;;;18.80;69.50;100952.00;5015337;28;20128;-81
2022/07/30 06:50:25;;;;;;;2.33;1.67;;;;;;;18.93;71.25;100960.28;4994163;28;20997;-80
2022/07/30 06:52:53;;;;;;;4.90;1.65;;;;;;;18.96;70.41;100954.78;4981093;28;20399;-81
2022/07/30 06:55:20;;;;;;;1.63;1.35;;;;;;;18.96;71.83;100965.47;4990177;28;20921;-81
2022/07/30 06:57:46;;;;;;;2.63;1.50;;;;;;;19.05;70.93;100969.50;4994853;28;20042;-81
2022/07/30 07:00:14;;;;;;;1.92;1.42;;;;;;;18.98;69.81;100968.94;4990770;28;20048;-81
2022/07/30 07:02:41;;;;;;;2.00;1.58;;;;;;;19.04;70.21;100971.31;5016195;28;20376;-81
2022/07/30 07:05:08;;;;;;;20.73;3.03;;;;;;;19.08;70.59;100969.34;4993807;28;20084;-81
2022/07/30 07:07:35;;;;;;;3.22;1.65;;;;;;;19.13;69.27;100967.31;5003040;28;20047;-81
2022/07/30 07:10:10;;;;;;;1.67;1.58;;;;;;;19.04;68.79;100970.47;4993354;28;20133;-81
2022/07/30 07:12:37;;;;;;;7.43;2.65;;;;;;;19.04;68.97;100971.31;4997143;28;20041;-81
2022/07/30 07:15:04;;;;;;;3.13;1.88;;;;;;;19.09;69.00;100976.47;4996761;28;20090;-82
2022/07/30 07:17:31;;;;;;;1.48;1.38;;;;;;;19.10;68.37;100971.03;4994448;28;20109;-80
2022/07/30 07:19:58;;;;;;;2.88;1.50;;;;;;;19.17;69.33;100970.69;4969719;28;20118;-82
2022/07/30 07:22:30;;;;;;;6.10;1.88;;;;;;;19.22;68.82;100974.00;4987926;28;20443;-81
2022/07/30 07:24:57;;;;;;;1.83;1.63;;;;;;;19.37;69.73;100968.72;4994002;28;20053;-81
2022/07/30 07:27:23;;;;;;;3.33;1.60;;;;;;;19.31;67.76;100966.34;5014111;28;20050;-81
2022/07/30 07:29:51;;;;;;;3.65;1.40;;;;;;;19.39;69.30;100974.00;5014421;28;20045;-81
2022/07/30 07:32:32;;;;;;;3.40;1.83;;;;;;;19.45;67.48;100972.81;4996231;28;20103;-80
2022/07/30 07:34:59;;;;;;;2.25;1.60;;;;;;;19.40;68.78;100973.03;4980733;28;20537;-80
2022/07/30 07:37:25;;;;;;;4.20;1.70;;;;;;;19.40;68.54;100970.38;4991285;28;20087;-81
2022/07/30 07:39:52;;;;;;;1.60;1.42;;;;;;;19.63;68.14;100970.06;4999345;28;20037;-81
2022/07/30 07:42:19;;;;;;;3.15;1.77;;;;;;;19.69;67.12;100963.53;4993285;28;20482;-81
2022/07/30 07:44:46;;;;;;;2.67;1.83;;;;;;;19.80;66.30;100965.63;5014762;28;20034;-81
2022/07/30 07:47:13;;;;;;;1.67;1.52;;;;;;;19.87;65.68;100972.38;5015690;28;20037;-81
2022/07/30 07:49:39;;;;;;;1.75;1.30;;;;;;;19.89;66.11;100974.03;5018292;28;20048;-81
2022/07/30 07:52:06;;;;;;;2.60;1.50;;;;;;;20.02;65.42;100978.75;5000146;28;20049;-81
2022/07/30 07:54:33;;;;;;;3.78;2.00;;;;;;;20.03;65.92;100980.47;4999808;28;20040;-81
2022/07/30 07:57:00;;;;;;;3.08;1.92;;;;;;;20.06;64.40;100974.91;4982713;28;20087;-81
2022/07/30 07:59:29;;;;;;;2.80;1.65;;;;;;;20.14;65.35;100970.00;5033124;28;20049;-81
2022/07/30 08:02:06;;;;;;;1.42;1.33;;;;;;;20.28;64.50;100972.78;5002159;28;20046;-81
2022/07/30 08:04:34;;;;;;;2.42;1.35;;;;;;;20.39;65.42;100975.72;5008940;28;20065;-81
2022/07/30 08:07:00;;;;;;;2.85;1.67;;;;;;;20.59;64.91;100976.44;4998890;28;20037;-81
2022/07/30 08:09:28;;;;;;;1.88;1.70;;;;;;;20.89;63.08;100974.69;4982809;28;20037;-82
2022/07/30 08:12:13;;;;;;;2.17;1.42;;;;;;;20.88;64.42;100982.84;4984190;28;20042;-81
2022/07/30 08:14:39;;;;;;;2.55;1.98;;;;;;;20.92;61.58;100974.50;5001432;28;20042;-81
2022/07/30 08:17:06;;;;;;;3.25;1.70;;;;;;;20.96;62.10;100973.38;5005373;28;20049;-79
2022/07/30 08:19:34;;;;;;;2.55;1.85;;;;;;;21.15;61.58;100983.91;5017059;28;20044;-80
2022/07/30 08:22:00;;;;;;;4.47;1.90;;;;;;;21.19;60.37;100980.09;4997206;28;20044;-80
2022/07/30 08:24:27;;;;;;;1.95;1.48;;;;;;;21.21;61.03;100978.16;5004852;28;20151;-83
2022/07/30 08:26:54;;;;;;;2.60;1.50;;;;;;;21.27;59.56;100977.84;5013871;28;20464;-79
2022/07/30 08:29:20;;;;;;;1.83;1.60;;;;;;;21.23;59.94;100973.56;5020823;28;20048;-79
2022/07/30 08:31:47;;;;;;;7.72;2.33;;;;;;;21.31;61.08;100971.31;5008125;28;20132;-78
2022/07/30 08:34:14;;;;;;;2.20;1.50;;;;;;;21.60;60.10;100972.22;5000484;28;20494;-82
2022/07/30 08:36:41;;;;;;;1.38;1.27;;;;;;;21.69;59.59;100972.59;5014045;28;20038;-80
2022/07/30 08:39:08;;;;;;;2.80;1.75;;;;;;;21.90;57.83;100964.06;5003026;28;20045;-79
2022/07/30 08:41:35;;;;;;;4.55;1.40;;;;;;;22.10;58.33;100970.91;4986298;28;20414;-80
2022/07/30 08:44:02;;;;;;;2.13;1.73;;;;;;;22.12;58.33;100962.75;5007727;28;20045;-79
2022/07/30 08:46:32;;;;;;;2.33;1.40;;;;;;;22.19;56.65;100964.06;5006180;28;20128;-81
2022/07/30 08:48:59;;;;;;;2.20;1.30;;;;;;;22.45;56.48;100970.50;5007376;28;20045;-82
2022/07/30 08:51:34;;;;;;;2.80;1.60;;;;;;;22.67;55.45;100976.19;5021851;28;20060;-85
2022/07/30 08:54:03;;;;;;;2.70;1.83;;;;;;;22.91;55.58;100973.72;4990721;28;20056;-80
2022/07/30 08:56:31;;;;;;;3.72;1.50;;;;;;;23.06;54.50;100981.75;4999962;28;20056;-80
2022/07/30 08:59:01;;;;;;;58.88;8.18;;;;;;;23.24;53.74;100980.50;5001677;28;20045;-80
2022/07/30 09:01:28;;;;;;;6.22;2.30;;;;;;;23.44;53.25;100979.97;5002610;28;20231;-79
2022/07/30 09:03:55;;;;;;;3.53;1.67;;;;;;;23.57;51.73;100978.19;4984976;28;20034;-81
2022/07/30 09:06:22;;;;;;;32.58;6.15;;;;;;;23.57;52.74;100972.78;5026527;28;20046;-81
2022/07/30 09:08:48;;;;;;;8.40;2.10;;;;;;;23.63;53.43;100973.34;5017319;28;20136;-80
2022/07/30 09:11:15;;;;;;;1.65;1.27;;;;;;;23.59;52.17;100973.56;5012777;28;20116;-82
2022/07/30 09:13:43;;;;;;;28.48;5.20;;;;;;;23.35;52.84;100979.75;5005732;28;20055;-79
2022/07/30 09:16:25;;;;;;;3.50;1.60;;;;;;;23.52;51.96;100971.38;5003616;28;20041;-80
2022/07/30 09:18:53;;;;;;;2.47;1.50;;;;;;;23.64;51.35;100978.66;5011560;28;20425;-81
2022/07/30 09:21:25;;;;;;;2.25;1.52;;;;;;;24.04;50.74;100976.66;4983981;28;20038;-80
2022/07/30 09:24:04;;;;;;;2.45;1.40;;;;;;;23.99;50.98;100973.44;5001239;28;20037;-82
2022/07/30 09:26:34;;;;;;;3.10;1.50;;;;;;;24.27;49.98;100982.25;5028518;28;20041;-80
2022/07/30 09:29:19;;;;;;;1.48;1.27;;;;;;;24.48;49.59;100980.72;5001423;28;20052;-81
2022/07/30 09:31:54;;;;;;;5.40;1.83;;;;;;;24.32;47.92;100977.44;5031728;28;20128;-83
2022/07/30 09:34:28;;;;;;;1.33;1.23;;;;;;;24.37;49.52;100973.38;5002290;28;20045;-82
2022/07/30 09:36:55;;;;;;;;;;;;;;;24.22;48.36;100979.03;5008343;28;20613;-79
2022/07/30 09:39:36;;;;;;;1.70;1.52;;;;;;;24.67;49.29;100972.13;5003321;28;19956;-84
2022/07/30 09:42:17;;;;;;;3.50;1.70;;;;;;;25.02;47.58;100969.47;5003643;28;20042;-81
2022/07/30 09:44:44;;;;;;;10.48;2.85;;;;;;;25.25;46.87;100973.16;4998697;28;20044;-82
2022/07/30 09:47:30;;;;;;;4.85;2.00;;;;;;;25.35;45.89;100976.00;4996993;28;20049;-84
2022/07/30 09:50:18;;;;;;;2.50;1.70;;;;;;;25.31;46.83;100974.50;4999768;28;20041;-79
2022/07/30 09:53:08;;;;;;;1.50;1.40;;;;;;;25.55;46.17;100970.75;5004516;28;20048;-82
2022/07/30 09:55:37;;;;;;;1.95;1.40;;;;;;;25.62;45.77;100973.84;5002381;28;20383;-81
2022/07/30 09:58:09;;;;;;;1.45;1.35;;;;;;;26.11;44.19;100969.97;4995996;28;20053;-80
2022/07/30 10:00:56;;;;;;;2.85;1.52;;;;;;;26.71;43.00;100967.81;4999896;28;20049;-78
2022/07/30 10:03:24;;;;;;;1.85;1.60;;;;;;;27.03;42.56;100966.00;5018015;28;20064;-80
2022/07/30 10:06:07;;;;;;;2.67;1.50;;;;;;;27.29;42.63;100965.63;5001570;28;20041;-82
2022/07/30 10:08:49;;;;;;;1.85;1.50;;;;;;;27.36;41.99;100969.53;4998890;28;20033;-82
2022/07/30 10:11:24;;;;;;;1.83;1.40;;;;;;;27.27;40.99;100962.19;4984137;28;20046;-79
2022/07/30 10:13:58;;;;;;;2.40;1.42;;;;;;;27.37;41.11;100961.25;5010003;28;20064;-81
2022/07/30 10:16:26;;;;;;;3.80;1.80;;;;;;;27.18;40.75;100956.56;4995772;28;20049;-80
2022/07/30 10:18:56;;;;;;;4.50;1.73;;;;;;;26.48;40.38;100958.88;4989962;28;20037;-81
2022/07/30 10:21:24;;;;;;;1.92;1.70;;;;;;;26.93;40.06;100951.47;4998470;28;20055;-79
2022/07/30 10:23:51;;;;;;;2.33;1.50;;;;;;;26.99;40.39;100964.53;4994068;28;20112;-79
2022/07/30 10:26:18;;;;;;;2.33;1.80;;;;;;;27.11;40.29;100954.50;4989535;28;20050;-80
2022/07/30 10:28:46;;;;;;;1.50;1.40;;;;;;;27.16;40.69;100958.56;5002209;28;20387;-81
2022/07/30 10:31:14;;;;;;;3.05;1.50;;;;;;;27.11;41.11;100952.66;5003401;28;20048;-79
2022/07/30 10:34:01;;;;;;;2.08;1.50;;;;;;;27.06;39.38;100964.88;5011433;28;20037;-80
2022/07/30 10:36:28;;;;;;;3.67;1.45;;;;;;;27.01;39.12;100958.97;5004053;28;20037;-81
2022/07/30 10:38:55;;;;;;;1.90;1.60;;;;;;;27.26;38.66;100947.78;5005421;28;20348;-79
2022/07/30 10:41:42;;;;;;;2.67;1.30;;;;;;;27.04;38.50;100959.59;5017215;28;20048;-80
2022/07/30 10:44:42;;;;;;;1.92;1.42;;;;;;;27.11;38.29;100947.22;4986987;28;20056;-81
2022/07/30 10:47:12;;;;;;;2.28;1.50;;;;;;;27.32;37.90;100958.06;4988934;28;20052;-80
2022/07/30 10:49:39;;;;;;;8.85;2.20;;;;;;;27.24;38.29;100955.16;5010415;28;20037;-80
2022/07/30 10:52:09;;;;;;;6.22;1.80;;;;;;;26.57;39.09;100958.09;4988730;28;20053;-81
2022/07/30 10:54:46;;;;;;;2.05;1.40;;;;;;;26.72;40.29;100954.13;5000237;28;20042;-80
2022/07/30 10:57:17;;;;;;;3.67;1.70;;;;;;;27.19;39.71;100954.72;4988078;28;20041;-79
2022/07/30 11:00:00;;;;;;;5.00;1.77;;;;;;;27.60;38.39;100959.28;5003800;28;20048;-81
2022/07/30 11:02:33;;;;;;;3.10;1.80;;;;;;;27.38;36.74;100945.84;5009146;28;20116;-80
2022/07/30 11:05:21;;;;;;;1.65;1.50;;;;;;;27.37;37.57;100954.97;4983968;28;20288;-80
2022/07/30 11:08:36;;;;;;;2.20;1.60;;;;;;;27.10;37.21;100958.22;5007749;28;20037;-80
2022/07/30 11:11:20;;;;;;;4.38;1.70;;;;;;;27.33;36.79;100948.97;4993767;28;20124;-81
2022/07/30 11:14:07;;;;;;;2.05;1.67;;;;;;;27.81;35.76;100950.25;4994320;28;20047;-82
2022/07/30 11:16:33;;;;;;;3.08;1.60;;;;;;;27.76;35.24;100945.25;5025767;28;20042;-79
2022/07/30 11:19:23;;;;;;;1.70;1.60;;;;;;;28.02;36.72;100951.09;5026186;28;20049;-81
2022/07/30 11:22:39;;;;;;;3.10;1.90;;;;;;;27.79;34.41;100944.97;4993306;28;20041;-80
2022/07/30 11:25:08;;;;;;;1.88;1.70;;;;;;;27.62;35.54;100942.84;5006067;28;20672;-81
2022/07/30 11:27:47;;;;;;;2.20;1.80;;;;;;;27.59;36.26;100946.69;4995453;28;20545;-80
2022/07/30 11:30:14;;;;;;;4.30;2.33;;;;;;;27.80;36.17;100941.25;4997627;28;20037;-80
2022/07/30 11:32:50;;;;;;;2.95;1.70;;;;;;;28.20;34.88;100952.16;4995155;28;20041;-80
2022/07/30 11:35:24;;;;;;;2.45;1.75;;;;;;;27.79;35.33;100952.25;5013494;28;20034;-80
2022/07/30 11:38:08;;;;;;;3.40;2.20;;;;;;;27.23;35.21;100949.88;5001510;28;20033;-80